sensor_id;sensor_type;location;lat;lon;timestamp;P1;durP1;ratioP1;P2;durP2;ratioP2
2906;SDS011;1463;51.070;16.998;2023-09-08T00:02:26;10.23;;;8.87;;
2906;SDS011;1463;51.070;16.998;2023-09-08T00:04:55;13.10;;;9.70;;
2906;SDS011;1463;51.070;16.998;2023-09-08T00:07:23;14.07;;;9.40;;
2906;SDS011;1463;51.070;16.998;2023-09-08T00:09:50;10.70;;;8.90;;
2906;SDS011;1463;51.070;16.998;2023-09-08T00:12:17;12.87;;;9.03;;
2906;SDS011;1463;51.070;16.998;2023-09-08T00:14:44;11.40;;;9.43;;
2906;SDS011;1463;51.070;16.998;2023-09-08T00:17:13;11.27;;;9.17;;
2906;SDS011;1463;51.070;16.998;2023-09-08T00:19:41;12.53;;;9.03;;
2906;SDS011;1463;51.070;16.998;2023-09-08T00:22:10;13.13;;;9.40;;
2906;SDS011;1463;51.070;16.998;2023-09-08T00:24:38;12.83;;;9.40;;
2906;SDS011;1463;51.070;16.998;2023-09-08T00:27:07;11.10;;;9.53;;
2906;SDS011;1463;51.070;16.998;2023-09-08T00:29:37;10.70;;;9.57;;
2906;SDS011;1463;51.070;16.998;2023-09-08T00:32:04;10.77;;;9.20;;
2906;SDS011;1463;51.070;16.998;2023-09-08T00:34:31;10.27;;;9.27;;
2906;SDS011;1463;51.070;16.998;2023-09-08T00:36:58;12.10;;;9.70;;
2906;SDS011;1463;51.070;16.998;2023-09-08T00:39:31;12.03;;;9.00;;
2906;SDS011;1463;51.070;16.998;2023-09-08T00:41:58;12.83;;;9.97;;
2906;SDS011;1463;51.070;16.998;2023-09-08T00:44:24;12.23;;;9.80;;
2906;SDS011;1463;51.070;16.998;2023-09-08T00:46:51;10.60;;;9.50;;
2906;SDS011;1463;51.070;16.998;2023-09-08T00:49:18;10.57;;;9.50;;
2906;SDS011;1463;51.070;16.998;2023-09-08T00:51:45;10.10;;;9.10;;
2906;SDS011;1463;51.070;16.998;2023-09-08T00:54:12;12.07;;;10.77;;
2906;SDS011;1463;51.070;16.998;2023-09-08T00:56:43;15.73;;;10.10;;
2906;SDS011;1463;51.070;16.998;2023-09-08T00:59:12;11.87;;;10.30;;
2906;SDS011;1463;51.070;16.998;2023-09-08T01:01:39;11.37;;;10.27;;
2906;SDS011;1463;51.070;16.998;2023-09-08T01:04:06;15.70;;;10.67;;
2906;SDS011;1463;51.070;16.998;2023-09-08T01:06:33;10.87;;;9.77;;
2906;SDS011;1463;51.070;16.998;2023-09-08T01:09:00;13.37;;;10.60;;
2906;SDS011;1463;51.070;16.998;2023-09-08T01:11:27;12.57;;;10.50;;
2906;SDS011;1463;51.070;16.998;2023-09-08T01:13:56;11.77;;;10.57;;
2906;SDS011;1463;51.070;16.998;2023-09-08T01:16:23;10.67;;;9.60;;
2906;SDS011;1463;51.070;16.998;2023-09-08T01:18:50;11.67;;;10.47;;
2906;SDS011;1463;51.070;16.998;2023-09-08T01:21:24;12.00;;;10.60;;
2906;SDS011;1463;51.070;16.998;2023-09-08T01:24:15;12.20;;;10.90;;
2906;SDS011;1463;51.070;16.998;2023-09-08T01:26:48;9.63;;;8.70;;
2906;SDS011;1463;51.070;16.998;2023-09-08T01:29:15;12.97;;;10.60;;
2906;SDS011;1463;51.070;16.998;2023-09-08T01:31:44;14.53;;;11.00;;
2906;SDS011;1463;51.070;16.998;2023-09-08T01:34:14;10.50;;;9.50;;
2906;SDS011;1463;51.070;16.998;2023-09-08T01:36:40;11.80;;;10.60;;
2906;SDS011;1463;51.070;16.998;2023-09-08T01:39:08;10.53;;;9.17;;
2906;SDS011;1463;51.070;16.998;2023-09-08T01:41:35;12.30;;;9.73;;
2906;SDS011;1463;51.070;16.998;2023-09-08T01:44:03;11.87;;;10.10;;
2906;SDS011;1463;51.070;16.998;2023-09-08T01:46:33;12.17;;;10.70;;
2906;SDS011;1463;51.070;16.998;2023-09-08T01:48:59;12.97;;;10.47;;
2906;SDS011;1463;51.070;16.998;2023-09-08T01:51:26;11.73;;;10.53;;
2906;SDS011;1463;51.070;16.998;2023-09-08T01:53:53;13.83;;;11.50;;
2906;SDS011;1463;51.070;16.998;2023-09-08T01:56:20;12.03;;;10.73;;
2906;SDS011;1463;51.070;16.998;2023-09-08T01:58:48;12.03;;;10.47;;
2906;SDS011;1463;51.070;16.998;2023-09-08T02:01:16;11.63;;;10.47;;
2906;SDS011;1463;51.070;16.998;2023-09-08T02:03:42;11.87;;;10.67;;
2906;SDS011;1463;51.070;16.998;2023-09-08T02:06:09;13.77;;;11.40;;
2906;SDS011;1463;51.070;16.998;2023-09-08T02:08:36;13.20;;;11.30;;
2906;SDS011;1463;51.070;16.998;2023-09-08T02:11:03;12.50;;;10.00;;
2906;SDS011;1463;51.070;16.998;2023-09-08T02:13:30;13.70;;;12.20;;
2906;SDS011;1463;51.070;16.998;2023-09-08T02:15:56;10.40;;;9.30;;
2906;SDS011;1463;51.070;16.998;2023-09-08T02:18:25;12.07;;;10.83;;
2906;SDS011;1463;51.070;16.998;2023-09-08T02:20:53;12.70;;;10.30;;
2906;SDS011;1463;51.070;16.998;2023-09-08T02:23:20;11.53;;;10.53;;
2906;SDS011;1463;51.070;16.998;2023-09-08T02:25:46;12.93;;;11.70;;
2906;SDS011;1463;51.070;16.998;2023-09-08T02:28:13;11.67;;;10.40;;
2906;SDS011;1463;51.070;16.998;2023-09-08T02:30:40;14.23;;;12.83;;
2906;SDS011;1463;51.070;16.998;2023-09-08T02:33:07;11.33;;;10.23;;
2906;SDS011;1463;51.070;16.998;2023-09-08T02:35:36;11.23;;;10.10;;
2906;SDS011;1463;51.070;16.998;2023-09-08T02:38:05;14.50;;;11.97;;
2906;SDS011;1463;51.070;16.998;2023-09-08T02:40:32;12.90;;;11.33;;
2906;SDS011;1463;51.070;16.998;2023-09-08T02:42:59;13.40;;;10.97;;
2906;SDS011;1463;51.070;16.998;2023-09-08T02:45:28;13.13;;;11.43;;
2906;SDS011;1463;51.070;16.998;2023-09-08T02:47:55;12.37;;;10.67;;
2906;SDS011;1463;51.070;16.998;2023-09-08T02:50:22;12.27;;;11.10;;
2906;SDS011;1463;51.070;16.998;2023-09-08T02:52:52;11.67;;;10.57;;
2906;SDS011;1463;51.070;16.998;2023-09-08T02:55:19;13.17;;;11.30;;
2906;SDS011;1463;51.070;16.998;2023-09-08T02:57:46;12.80;;;11.50;;
2906;SDS011;1463;51.070;16.998;2023-09-08T03:00:15;15.50;;;11.83;;
2906;SDS011;1463;51.070;16.998;2023-09-08T03:02:42;12.63;;;11.33;;
2906;SDS011;1463;51.070;16.998;2023-09-08T03:05:08;14.57;;;11.57;;
2906;SDS011;1463;51.070;16.998;2023-09-08T03:07:38;13.77;;;11.90;;
2906;SDS011;1463;51.070;16.998;2023-09-08T03:10:07;13.40;;;11.43;;
2906;SDS011;1463;51.070;16.998;2023-09-08T03:12:34;13.33;;;10.93;;
2906;SDS011;1463;51.070;16.998;2023-09-08T03:15:01;14.30;;;12.50;;
2906;SDS011;1463;51.070;16.998;2023-09-08T03:17:29;11.90;;;10.57;;
2906;SDS011;1463;51.070;16.998;2023-09-08T03:19:56;13.17;;;11.77;;
2906;SDS011;1463;51.070;16.998;2023-09-08T03:22:23;14.73;;;12.50;;
2906;SDS011;1463;51.070;16.998;2023-09-08T03:24:51;13.30;;;11.90;;
2906;SDS011;1463;51.070;16.998;2023-09-08T03:27:19;13.63;;;11.83;;
2906;SDS011;1463;51.070;16.998;2023-09-08T03:29:46;13.60;;;11.13;;
2906;SDS011;1463;51.070;16.998;2023-09-08T03:32:13;12.70;;;11.40;;
2906;SDS011;1463;51.070;16.998;2023-09-08T03:34:40;13.20;;;11.80;;
2906;SDS011;1463;51.070;16.998;2023-09-08T03:37:06;12.93;;;11.67;;
2906;SDS011;1463;51.070;16.998;2023-09-08T03:39:33;14.37;;;12.43;;
2906;SDS011;1463;51.070;16.998;2023-09-08T03:42:00;13.77;;;12.03;;
2906;SDS011;1463;51.070;16.998;2023-09-08T03:44:29;13.73;;;11.90;;
2906;SDS011;1463;51.070;16.998;2023-09-08T03:46:56;14.90;;;12.67;;
2906;SDS011;1463;51.070;16.998;2023-09-08T03:49:23;13.33;;;11.93;;
2906;SDS011;1463;51.070;16.998;2023-09-08T03:51:50;13.63;;;11.87;;
2906;SDS011;1463;51.070;16.998;2023-09-08T03:54:17;12.60;;;11.40;;
2906;SDS011;1463;51.070;16.998;2023-09-08T03:56:44;13.17;;;11.90;;
2906;SDS011;1463;51.070;16.998;2023-09-08T03:59:10;13.70;;;12.30;;
2906;SDS011;1463;51.070;16.998;2023-09-08T04:01:38;13.50;;;12.20;;
2906;SDS011;1463;51.070;16.998;2023-09-08T04:04:05;14.77;;;13.27;;
2906;SDS011;1463;51.070;16.998;2023-09-08T04:06:33;17.87;;;13.83;;
2906;SDS011;1463;51.070;16.998;2023-09-08T04:09:00;13.63;;;12.23;;
2906;SDS011;1463;51.070;16.998;2023-09-08T04:11:27;14.20;;;12.80;;
2906;SDS011;1463;51.070;16.998;2023-09-08T04:13:54;14.57;;;13.10;;
2906;SDS011;1463;51.070;16.998;2023-09-08T04:16:20;14.50;;;13.03;;
2906;SDS011;1463;51.070;16.998;2023-09-08T04:18:48;14.97;;;13.30;;
2906;SDS011;1463;51.070;16.998;2023-09-08T04:21:15;15.27;;;13.70;;
2906;SDS011;1463;51.070;16.998;2023-09-08T04:23:42;14.30;;;12.82;;
2906;SDS011;1463;51.070;16.998;2023-09-08T04:26:09;14.57;;;13.15;;
2906;SDS011;1463;51.070;16.998;2023-09-08T04:28:35;14.77;;;13.38;;
2906;SDS011;1463;51.070;16.998;2023-09-08T04:31:02;14.70;;;13.20;;
2906;SDS011;1463;51.070;16.998;2023-09-08T04:33:29;15.80;;;12.90;;
2906;SDS011;1463;51.070;16.998;2023-09-08T04:35:57;15.47;;;13.70;;
2906;SDS011;1463;51.070;16.998;2023-09-08T04:38:24;14.98;;;13.38;;
2906;SDS011;1463;51.070;16.998;2023-09-08T04:40:51;15.27;;;13.70;;
2906;SDS011;1463;51.070;16.998;2023-09-08T04:43:18;15.17;;;13.73;;
2906;SDS011;1463;51.070;16.998;2023-09-08T04:45:44;15.80;;;14.17;;
2906;SDS011;1463;51.070;16.998;2023-09-08T04:48:11;15.83;;;14.37;;
2906;SDS011;1463;51.070;16.998;2023-09-08T04:50:38;17.37;;;13.23;;
2906;SDS011;1463;51.070;16.998;2023-09-08T04:53:06;16.87;;;14.40;;
2906;SDS011;1463;51.070;16.998;2023-09-08T04:55:33;15.97;;;13.63;;
2906;SDS011;1463;51.070;16.998;2023-09-08T04:58:00;15.98;;;14.27;;
2906;SDS011;1463;51.070;16.998;2023-09-08T05:00:26;15.97;;;14.03;;
2906;SDS011;1463;51.070;16.998;2023-09-08T05:02:53;17.20;;;14.07;;
2906;SDS011;1463;51.070;16.998;2023-09-08T05:05:20;14.50;;;13.00;;
2906;SDS011;1463;51.070;16.998;2023-09-08T05:07:47;14.87;;;13.20;;
2906;SDS011;1463;51.070;16.998;2023-09-08T05:10:15;17.23;;;13.30;;
2906;SDS011;1463;51.070;16.998;2023-09-08T05:12:42;14.60;;;13.20;;
2906;SDS011;1463;51.070;16.998;2023-09-08T05:15:09;17.30;;;14.33;;
2906;SDS011;1463;51.070;16.998;2023-09-08T05:17:40;15.30;;;13.50;;
2906;SDS011;1463;51.070;16.998;2023-09-08T05:20:07;14.80;;;13.17;;
2906;SDS011;1463;51.070;16.998;2023-09-08T05:22:34;15.48;;;13.40;;
2906;SDS011;1463;51.070;16.998;2023-09-08T05:25:01;24.83;;;21.33;;
2906;SDS011;1463;51.070;16.998;2023-09-08T05:27:31;25.90;;;22.07;;
2906;SDS011;1463;51.070;16.998;2023-09-08T05:29:58;16.38;;;14.77;;
2906;SDS011;1463;51.070;16.998;2023-09-08T05:32:25;19.67;;;15.63;;
2906;SDS011;1463;51.070;16.998;2023-09-08T05:34:51;17.23;;;15.52;;
2906;SDS011;1463;51.070;16.998;2023-09-08T05:37:18;18.92;;;15.95;;
2906;SDS011;1463;51.070;16.998;2023-09-08T05:39:45;19.77;;;15.77;;
2906;SDS011;1463;51.070;16.998;2023-09-08T05:42:14;17.67;;;15.85;;
2906;SDS011;1463;51.070;16.998;2023-09-08T05:44:42;17.63;;;15.13;;
2906;SDS011;1463;51.070;16.998;2023-09-08T05:47:10;20.05;;;16.58;;
2906;SDS011;1463;51.070;16.998;2023-09-08T05:49:38;20.55;;;17.52;;
2906;SDS011;1463;51.070;16.998;2023-09-08T05:52:07;17.13;;;14.95;;
2906;SDS011;1463;51.070;16.998;2023-09-08T05:54:34;19.42;;;16.92;;
2906;SDS011;1463;51.070;16.998;2023-09-08T05:57:01;20.90;;;15.88;;
2906;SDS011;1463;51.070;16.998;2023-09-08T05:59:27;16.50;;;14.80;;
2906;SDS011;1463;51.070;16.998;2023-09-08T06:01:56;22.63;;;16.63;;
2906;SDS011;1463;51.070;16.998;2023-09-08T06:04:22;23.52;;;15.98;;
2906;SDS011;1463;51.070;16.998;2023-09-08T06:06:49;19.30;;;17.00;;
2906;SDS011;1463;51.070;16.998;2023-09-08T06:09:16;20.00;;;15.77;;
2906;SDS011;1463;51.070;16.998;2023-09-08T06:11:43;18.67;;;16.77;;
2906;SDS011;1463;51.070;16.998;2023-09-08T06:14:11;18.73;;;16.42;;
2906;SDS011;1463;51.070;16.998;2023-09-08T06:16:37;18.92;;;16.25;;
2906;SDS011;1463;51.070;16.998;2023-09-08T06:19:06;19.15;;;17.15;;
2906;SDS011;1463;51.070;16.998;2023-09-08T06:21:33;18.42;;;16.42;;
2906;SDS011;1463;51.070;16.998;2023-09-08T06:24:00;20.50;;;17.50;;
2906;SDS011;1463;51.070;16.998;2023-09-08T06:26:26;19.90;;;17.20;;
2906;SDS011;1463;51.070;16.998;2023-09-08T06:28:53;25.37;;;21.20;;
2906;SDS011;1463;51.070;16.998;2023-09-08T06:31:20;20.60;;;18.10;;
2906;SDS011;1463;51.070;16.998;2023-09-08T06:33:47;27.57;;;17.70;;
2906;SDS011;1463;51.070;16.998;2023-09-08T06:36:18;21.00;;;17.00;;
2906;SDS011;1463;51.070;16.998;2023-09-08T06:38:45;19.43;;;16.57;;
2906;SDS011;1463;51.070;16.998;2023-09-08T06:41:11;21.70;;;15.57;;
2906;SDS011;1463;51.070;16.998;2023-09-08T06:43:41;18.43;;;16.57;;
2906;SDS011;1463;51.070;16.998;2023-09-08T06:46:08;20.17;;;17.77;;
2906;SDS011;1463;51.070;16.998;2023-09-08T06:48:35;22.50;;;18.33;;
2906;SDS011;1463;51.070;16.998;2023-09-08T06:51:01;21.57;;;19.43;;
2906;SDS011;1463;51.070;16.998;2023-09-08T06:53:29;28.33;;;20.67;;
2906;SDS011;1463;51.070;16.998;2023-09-08T06:55:56;23.00;;;19.50;;
2906;SDS011;1463;51.070;16.998;2023-09-08T06:58:23;22.60;;;19.90;;
2906;SDS011;1463;51.070;16.998;2023-09-08T07:00:50;22.33;;;20.03;;
2906;SDS011;1463;51.070;16.998;2023-09-08T07:03:19;22.07;;;19.00;;
2906;SDS011;1463;51.070;16.998;2023-09-08T07:05:46;20.50;;;18.40;;
2906;SDS011;1463;51.070;16.998;2023-09-08T07:08:13;22.30;;;19.57;;
2906;SDS011;1463;51.070;16.998;2023-09-08T07:10:41;20.17;;;18.03;;
2906;SDS011;1463;51.070;16.998;2023-09-08T07:13:08;21.50;;;18.30;;
2906;SDS011;1463;51.070;16.998;2023-09-08T07:15:35;29.80;;;19.70;;
2906;SDS011;1463;51.070;16.998;2023-09-08T07:18:02;22.90;;;19.53;;
2906;SDS011;1463;51.070;16.998;2023-09-08T07:20:30;21.97;;;19.67;;
2906;SDS011;1463;51.070;16.998;2023-09-08T07:22:56;23.30;;;19.47;;
2906;SDS011;1463;51.070;16.998;2023-09-08T07:25:23;22.40;;;20.00;;
2906;SDS011;1463;51.070;16.998;2023-09-08T07:27:51;27.63;;;20.53;;
2906;SDS011;1463;51.070;16.998;2023-09-08T07:30:18;21.57;;;19.07;;
2906;SDS011;1463;51.070;16.998;2023-09-08T07:32:45;23.17;;;19.93;;
2906;SDS011;1463;51.070;16.998;2023-09-08T07:35:12;19.27;;;16.93;;
2906;SDS011;1463;51.070;16.998;2023-09-08T07:37:43;21.10;;;17.67;;
2906;SDS011;1463;51.070;16.998;2023-09-08T07:40:10;21.70;;;19.20;;
2906;SDS011;1463;51.070;16.998;2023-09-08T07:42:37;23.07;;;19.33;;
2906;SDS011;1463;51.070;16.998;2023-09-08T07:45:08;20.10;;;17.97;;
2906;SDS011;1463;51.070;16.998;2023-09-08T07:47:35;24.20;;;19.63;;
2906;SDS011;1463;51.070;16.998;2023-09-08T07:52:48;18.50;;;16.57;;
2906;SDS011;1463;51.070;16.998;2023-09-08T07:55:16;30.13;;;20.90;;
2906;SDS011;1463;51.070;16.998;2023-09-08T07:57:44;20.83;;;18.63;;
2906;SDS011;1463;51.070;16.998;2023-09-08T08:00:13;22.13;;;19.83;;
2906;SDS011;1463;51.070;16.998;2023-09-08T08:02:43;23.50;;;20.00;;
2906;SDS011;1463;51.070;16.998;2023-09-08T08:05:12;20.30;;;18.13;;
2906;SDS011;1463;51.070;16.998;2023-09-08T08:07:42;22.03;;;19.30;;
2906;SDS011;1463;51.070;16.998;2023-09-08T08:10:10;19.50;;;17.60;;
2906;SDS011;1463;51.070;16.998;2023-09-08T08:12:38;23.73;;;18.80;;
2906;SDS011;1463;51.070;16.998;2023-09-08T08:15:09;24.07;;;17.43;;
2906;SDS011;1463;51.070;16.998;2023-09-08T08:17:38;21.10;;;18.33;;
2906;SDS011;1463;51.070;16.998;2023-09-08T08:20:06;22.67;;;18.50;;
2906;SDS011;1463;51.070;16.998;2023-09-08T08:22:35;16.53;;;14.97;;
2906;SDS011;1463;51.070;16.998;2023-09-08T08:25:02;17.20;;;15.40;;
2906;SDS011;1463;51.070;16.998;2023-09-08T08:27:29;17.97;;;14.87;;
2906;SDS011;1463;51.070;16.998;2023-09-08T08:29:57;14.20;;;12.90;;
2906;SDS011;1463;51.070;16.998;2023-09-08T08:32:25;20.43;;;18.20;;
2906;SDS011;1463;51.070;16.998;2023-09-08T08:34:57;21.17;;;19.17;;
2906;SDS011;1463;51.070;16.998;2023-09-08T08:37:26;15.97;;;14.47;;
2906;SDS011;1463;51.070;16.998;2023-09-08T08:39:53;13.80;;;12.40;;
2906;SDS011;1463;51.070;16.998;2023-09-08T08:42:20;15.60;;;11.83;;
2906;SDS011;1463;51.070;16.998;2023-09-08T08:44:48;12.23;;;11.03;;
2906;SDS011;1463;51.070;16.998;2023-09-08T08:47:15;10.60;;;9.43;;
2906;SDS011;1463;51.070;16.998;2023-09-08T08:49:43;11.37;;;10.30;;
2906;SDS011;1463;51.070;16.998;2023-09-08T08:52:13;11.00;;;9.90;;
2906;SDS011;1463;51.070;16.998;2023-09-08T08:54:42;11.53;;;10.43;;
2906;SDS011;1463;51.070;16.998;2023-09-08T08:57:10;11.13;;;9.83;;
2906;SDS011;1463;51.070;16.998;2023-09-08T08:59:38;10.43;;;9.53;;
2906;SDS011;1463;51.070;16.998;2023-09-08T09:02:06;13.80;;;9.23;;
2906;SDS011;1463;51.070;16.998;2023-09-08T09:04:36;10.57;;;9.47;;
2906;SDS011;1463;51.070;16.998;2023-09-08T09:07:03;12.43;;;11.13;;
2906;SDS011;1463;51.070;16.998;2023-09-08T09:09:33;15.77;;;10.90;;
2906;SDS011;1463;51.070;16.998;2023-09-08T09:11:59;11.77;;;10.57;;
2906;SDS011;1463;51.070;16.998;2023-09-08T09:14:28;12.10;;;10.87;;
2906;SDS011;1463;51.070;16.998;2023-09-08T09:16:57;12.10;;;9.87;;
2906;SDS011;1463;51.070;16.998;2023-09-08T09:19:24;12.23;;;9.70;;
2906;SDS011;1463;51.070;16.998;2023-09-08T09:21:53;12.30;;;10.47;;
2906;SDS011;1463;51.070;16.998;2023-09-08T09:24:30;13.03;;;10.30;;
2906;SDS011;1463;51.070;16.998;2023-09-08T09:26:59;10.73;;;9.63;;
2906;SDS011;1463;51.070;16.998;2023-09-08T09:29:29;14.33;;;9.63;;
2906;SDS011;1463;51.070;16.998;2023-09-08T09:31:57;11.50;;;8.50;;
2906;SDS011;1463;51.070;16.998;2023-09-08T09:34:28;12.47;;;9.73;;
2906;SDS011;1463;51.070;16.998;2023-09-08T09:36:55;11.77;;;9.03;;
2906;SDS011;1463;51.070;16.998;2023-09-08T09:39:24;15.30;;;9.60;;
2906;SDS011;1463;51.070;16.998;2023-09-08T09:41:54;10.13;;;8.17;;
2906;SDS011;1463;51.070;16.998;2023-09-08T09:44:22;17.87;;;9.30;;
2906;SDS011;1463;51.070;16.998;2023-09-08T09:46:51;10.40;;;9.40;;
2906;SDS011;1463;51.070;16.998;2023-09-08T09:49:18;13.13;;;10.10;;
2906;SDS011;1463;51.070;16.998;2023-09-08T09:51:47;11.03;;;8.67;;
2906;SDS011;1463;51.070;16.998;2023-09-08T09:54:16;10.80;;;8.57;;
2906;SDS011;1463;51.070;16.998;2023-09-08T09:56:44;12.10;;;8.90;;
2906;SDS011;1463;51.070;16.998;2023-09-08T09:59:13;11.67;;;8.43;;
2906;SDS011;1463;51.070;16.998;2023-09-08T10:01:40;13.40;;;9.03;;
2906;SDS011;1463;51.070;16.998;2023-09-08T10:04:08;11.90;;;9.30;;
2906;SDS011;1463;51.070;16.998;2023-09-08T10:06:36;11.57;;;8.80;;
2906;SDS011;1463;51.070;16.998;2023-09-08T10:09:05;9.83;;;8.57;;
2906;SDS011;1463;51.070;16.998;2023-09-08T10:11:39;9.17;;;8.27;;
2906;SDS011;1463;51.070;16.998;2023-09-08T10:14:10;9.90;;;8.33;;
2906;SDS011;1463;51.070;16.998;2023-09-08T10:16:40;8.70;;;7.63;;
2906;SDS011;1463;51.070;16.998;2023-09-08T10:19:09;9.50;;;8.50;;
2906;SDS011;1463;51.070;16.998;2023-09-08T10:21:39;10.43;;;8.10;;
2906;SDS011;1463;51.070;16.998;2023-09-08T10:24:08;9.27;;;8.10;;
2906;SDS011;1463;51.070;16.998;2023-09-08T10:26:43;9.27;;;8.30;;
2906;SDS011;1463;51.070;16.998;2023-09-08T10:29:13;11.00;;;8.40;;
2906;SDS011;1463;51.070;16.998;2023-09-08T10:31:41;9.10;;;8.20;;
2906;SDS011;1463;51.070;16.998;2023-09-08T10:34:09;9.30;;;7.97;;
2906;SDS011;1463;51.070;16.998;2023-09-08T10:36:38;9.17;;;7.73;;
2906;SDS011;1463;51.070;16.998;2023-09-08T10:44:55;8.63;;;7.50;;
2906;SDS011;1463;51.070;16.998;2023-09-08T10:47:39;11.83;;;9.17;;
2906;SDS011;1463;51.070;16.998;2023-09-08T10:50:25;9.57;;;8.43;;
2906;SDS011;1463;51.070;16.998;2023-09-08T10:53:03;10.40;;;7.43;;
2906;SDS011;1463;51.070;16.998;2023-09-08T10:55:36;7.60;;;6.90;;
2906;SDS011;1463;51.070;16.998;2023-09-08T10:58:09;8.17;;;7.07;;
2906;SDS011;1463;51.070;16.998;2023-09-08T11:00:43;8.03;;;7.17;;
2906;SDS011;1463;51.070;16.998;2023-09-08T11:03:15;10.23;;;8.27;;
2906;SDS011;1463;51.070;16.998;2023-09-08T11:05:53;9.20;;;6.80;;
2906;SDS011;1463;51.070;16.998;2023-09-08T11:08:21;11.27;;;7.33;;
2906;SDS011;1463;51.070;16.998;2023-09-08T11:10:48;8.93;;;7.00;;
2906;SDS011;1463;51.070;16.998;2023-09-08T11:13:16;8.60;;;7.40;;
2906;SDS011;1463;51.070;16.998;2023-09-08T11:15:44;8.20;;;6.80;;
2906;SDS011;1463;51.070;16.998;2023-09-08T11:18:11;7.47;;;6.67;;
2906;SDS011;1463;51.070;16.998;2023-09-08T11:20:39;9.10;;;7.30;;
2906;SDS011;1463;51.070;16.998;2023-09-08T11:23:05;7.90;;;6.77;;
2906;SDS011;1463;51.070;16.998;2023-09-08T11:25:32;8.90;;;6.80;;
2906;SDS011;1463;51.070;16.998;2023-09-08T11:28:00;8.83;;;5.90;;
2906;SDS011;1463;51.070;16.998;2023-09-08T11:30:28;7.30;;;6.60;;
2906;SDS011;1463;51.070;16.998;2023-09-08T11:32:55;8.13;;;6.23;;
2906;SDS011;1463;51.070;16.998;2023-09-08T11:35:26;9.80;;;7.10;;
2906;SDS011;1463;51.070;16.998;2023-09-08T11:37:58;8.33;;;5.93;;
2906;SDS011;1463;51.070;16.998;2023-09-08T11:40:27;8.80;;;6.30;;
2906;SDS011;1463;51.070;16.998;2023-09-08T11:42:54;7.50;;;5.93;;
2906;SDS011;1463;51.070;16.998;2023-09-08T11:45:21;8.53;;;6.50;;
2906;SDS011;1463;51.070;16.998;2023-09-08T11:47:48;10.07;;;6.63;;
2906;SDS011;1463;51.070;16.998;2023-09-08T11:50:16;8.73;;;6.50;;
2906;SDS011;1463;51.070;16.998;2023-09-08T11:52:45;10.47;;;6.27;;
2906;SDS011;1463;51.070;16.998;2023-09-08T11:55:14;7.83;;;6.10;;
2906;SDS011;1463;51.070;16.998;2023-09-08T11:57:41;6.80;;;6.00;;
2906;SDS011;1463;51.070;16.998;2023-09-08T12:00:15;6.97;;;5.77;;
2906;SDS011;1463;51.070;16.998;2023-09-08T12:02:44;6.57;;;5.77;;
2906;SDS011;1463;51.070;16.998;2023-09-08T12:05:20;7.10;;;5.50;;
2906;SDS011;1463;51.070;16.998;2023-09-08T12:07:47;6.83;;;6.13;;
2906;SDS011;1463;51.070;16.998;2023-09-08T12:10:17;10.80;;;6.70;;
2906;SDS011;1463;51.070;16.998;2023-09-08T12:12:44;8.63;;;5.60;;
2906;SDS011;1463;51.070;16.998;2023-09-08T12:15:12;8.03;;;5.47;;
2906;SDS011;1463;51.070;16.998;2023-09-08T12:17:57;5.70;;;4.77;;
2906;SDS011;1463;51.070;16.998;2023-09-08T12:20:27;6.33;;;5.37;;
2906;SDS011;1463;51.070;16.998;2023-09-08T12:22:54;5.90;;;5.30;;
2906;SDS011;1463;51.070;16.998;2023-09-08T12:25:24;6.37;;;5.70;;
2906;SDS011;1463;51.070;16.998;2023-09-08T12:27:53;7.67;;;5.20;;
2906;SDS011;1463;51.070;16.998;2023-09-08T12:30:22;6.77;;;5.33;;
2906;SDS011;1463;51.070;16.998;2023-09-08T12:32:55;7.53;;;5.83;;
2906;SDS011;1463;51.070;16.998;2023-09-08T12:35:22;6.70;;;5.27;;
2906;SDS011;1463;51.070;16.998;2023-09-08T12:37:52;6.53;;;5.80;;
2906;SDS011;1463;51.070;16.998;2023-09-08T12:40:19;8.60;;;5.60;;
2906;SDS011;1463;51.070;16.998;2023-09-08T12:42:48;7.10;;;5.37;;
2906;SDS011;1463;51.070;16.998;2023-09-08T12:45:15;6.20;;;5.60;;
2906;SDS011;1463;51.070;16.998;2023-09-08T12:47:42;9.53;;;5.53;;
2906;SDS011;1463;51.070;16.998;2023-09-08T12:50:09;8.73;;;6.63;;
2906;SDS011;1463;51.070;16.998;2023-09-08T12:52:40;6.57;;;5.77;;
2906;SDS011;1463;51.070;16.998;2023-09-08T12:55:06;5.63;;;5.03;;
2906;SDS011;1463;51.070;16.998;2023-09-08T12:57:34;7.20;;;5.27;;
2906;SDS011;1463;51.070;16.998;2023-09-08T13:00:04;6.73;;;5.10;;
2906;SDS011;1463;51.070;16.998;2023-09-08T13:02:32;6.80;;;5.23;;
2906;SDS011;1463;51.070;16.998;2023-09-08T13:05:01;6.10;;;5.27;;
2906;SDS011;1463;51.070;16.998;2023-09-08T13:07:28;7.47;;;5.27;;
2906;SDS011;1463;51.070;16.998;2023-09-08T13:09:55;5.60;;;4.90;;
2906;SDS011;1463;51.070;16.998;2023-09-08T13:12:22;5.93;;;5.07;;
2906;SDS011;1463;51.070;16.998;2023-09-08T13:14:49;6.17;;;5.10;;
2906;SDS011;1463;51.070;16.998;2023-09-08T13:17:17;7.10;;;5.70;;
2906;SDS011;1463;51.070;16.998;2023-09-08T13:19:45;6.00;;;5.10;;
2906;SDS011;1463;51.070;16.998;2023-09-08T13:22:12;6.37;;;5.70;;
2906;SDS011;1463;51.070;16.998;2023-09-08T13:24:40;7.57;;;5.43;;
2906;SDS011;1463;51.070;16.998;2023-09-08T13:27:10;8.40;;;5.67;;
2906;SDS011;1463;51.070;16.998;2023-09-08T13:29:40;6.77;;;5.33;;
2906;SDS011;1463;51.070;16.998;2023-09-08T13:32:07;7.80;;;5.20;;
2906;SDS011;1463;51.070;16.998;2023-09-08T13:34:35;6.67;;;5.40;;
2906;SDS011;1463;51.070;16.998;2023-09-08T13:37:03;7.20;;;6.50;;
2906;SDS011;1463;51.070;16.998;2023-09-08T13:39:30;9.90;;;7.30;;
2906;SDS011;1463;51.070;16.998;2023-09-08T13:41:59;9.53;;;7.03;;
2906;SDS011;1463;51.070;16.998;2023-09-08T13:44:26;7.83;;;5.70;;
2906;SDS011;1463;51.070;16.998;2023-09-08T13:46:53;6.60;;;5.70;;
2906;SDS011;1463;51.070;16.998;2023-09-08T13:49:21;8.20;;;5.93;;
2906;SDS011;1463;51.070;16.998;2023-09-08T13:51:49;7.10;;;5.50;;
2906;SDS011;1463;51.070;16.998;2023-09-08T13:54:18;6.70;;;5.10;;
2906;SDS011;1463;51.070;16.998;2023-09-08T13:56:45;9.33;;;6.47;;
2906;SDS011;1463;51.070;16.998;2023-09-08T13:59:24;5.37;;;4.63;;
2906;SDS011;1463;51.070;16.998;2023-09-08T14:01:51;6.23;;;5.10;;
2906;SDS011;1463;51.070;16.998;2023-09-08T14:04:19;6.70;;;5.17;;
2906;SDS011;1463;51.070;16.998;2023-09-08T14:06:51;7.77;;;5.40;;
2906;SDS011;1463;51.070;16.998;2023-09-08T14:09:18;7.80;;;5.10;;
2906;SDS011;1463;51.070;16.998;2023-09-08T14:11:47;8.50;;;5.70;;
2906;SDS011;1463;51.070;16.998;2023-09-08T14:14:14;5.93;;;5.00;;
2906;SDS011;1463;51.070;16.998;2023-09-08T14:16:41;8.10;;;4.60;;
2906;SDS011;1463;51.070;16.998;2023-09-08T14:19:07;8.27;;;5.70;;
2906;SDS011;1463;51.070;16.998;2023-09-08T14:21:34;6.20;;;5.13;;
2906;SDS011;1463;51.070;16.998;2023-09-08T14:24:03;10.93;;;5.20;;
2906;SDS011;1463;51.070;16.998;2023-09-08T14:26:31;5.63;;;5.03;;
2906;SDS011;1463;51.070;16.998;2023-09-08T14:28:58;7.00;;;4.77;;
2906;SDS011;1463;51.070;16.998;2023-09-08T14:31:24;5.50;;;4.70;;
2906;SDS011;1463;51.070;16.998;2023-09-08T14:33:51;5.40;;;4.37;;
2906;SDS011;1463;51.070;16.998;2023-09-08T14:36:20;5.13;;;4.60;;
2906;SDS011;1463;51.070;16.998;2023-09-08T14:38:47;8.43;;;5.70;;
2906;SDS011;1463;51.070;16.998;2023-09-08T14:41:16;6.00;;;5.10;;
2906;SDS011;1463;51.070;16.998;2023-09-08T14:43:42;10.10;;;4.87;;
2906;SDS011;1463;51.070;16.998;2023-09-08T14:46:10;5.57;;;4.90;;
2906;SDS011;1463;51.070;16.998;2023-09-08T14:48:36;6.73;;;4.80;;
2906;SDS011;1463;51.070;16.998;2023-09-08T14:51:03;4.90;;;4.30;;
2906;SDS011;1463;51.070;16.998;2023-09-08T14:53:30;9.77;;;4.53;;
2906;SDS011;1463;51.070;16.998;2023-09-08T14:56:00;5.50;;;4.73;;
2906;SDS011;1463;51.070;16.998;2023-09-08T14:58:30;7.50;;;4.90;;
2906;SDS011;1463;51.070;16.998;2023-09-08T15:01:00;5.43;;;4.30;;